Time;durP1;ratioP1;P1;durP2;ratioP2;P2;SDS_P1;SDS_P2;PMS_P1;PMS_P2;Temp;Humidity;BMP_temperature;BMP_pressure;BME280_temperature;BME280_humidity;BME280_pressure;Samples;Min_cycle;Max_cycle;Signal;HPM_P1;HPM_P2
2022/01/29 00:00:07;;;;;;;29.58;17.83;;;9.30;73.60;;;;;;4992417;28;20074;-50
2022/01/29 00:02:38;;;;;;;28.23;18.27;;;9.30;73.60;;;;;;4993768;28;20054;-49
2022/01/29 00:05:06;;;;;;;27.02;17.90;;;9.30;73.60;;;;;;4999247;28;20578;-46
2022/01/29 00:07:34;;;;;;;28.90;17.65;;;9.50;73.70;;;;;;4986182;28;20113;-47
2022/01/29 00:10:04;;;;;;;27.65;17.17;;;9.30;73.70;;;;;;4985257;28;20063;-51
2022/01/29 00:12:31;;;;;;;28.63;18.13;;;9.40;73.70;;;;;;4987905;28;20133;-48
2022/01/29 00:14:59;;;;;;;31.75;18.60;;;9.30;73.70;;;;;;4998082;28;20065;-47
2022/01/29 00:17:26;;;;;;;26.10;17.77;;;9.30;73.60;;;;;;5010452;28;20069;-48
2022/01/29 00:19:53;;;;;;;28.17;18.33;;;9.30;73.70;;;;;;4993131;28;20101;-51
2022/01/29 00:22:20;;;;;;;31.52;19.60;;;9.30;73.70;;;;;;5003801;28;20081;-44
2022/01/29 00:24:47;;;;;;;32.80;19.55;;;9.30;73.70;;;;;;4992894;28;20113;-48
2022/01/29 00:27:14;;;;;;;28.83;18.65;;;9.30;73.70;;;;;;4990955;28;20594;-49
2022/01/29 00:29:43;;;;;;;30.05;17.35;;;9.30;73.70;;;;;;4980953;28;20142;-47
2022/01/29 00:32:11;;;;;;;31.25;18.80;;;9.30;73.80;;;;;;4999771;28;20073;-49
2022/01/29 00:34:38;;;;;;;29.27;17.92;;;9.40;73.90;;;;;;5002752;28;20066;-50
2022/01/29 00:37:06;;;;;;;30.45;18.20;;;9.40;73.80;;;;;;5006781;28;20050;-48
2022/01/29 00:39:33;;;;;;;29.83;17.77;;;9.40;73.70;;;;;;4988772;28;20089;-50
2022/01/29 00:41:59;;;;;;;31.25;19.38;;;9.40;73.70;;;;;;4989022;28;20046;-46
2022/01/29 00:44:44;;;;;;;28.88;17.40;;;9.40;73.70;;;;;;4986697;28;20054;-49
2022/01/29 00:47:13;;;;;;;29.40;18.63;;;9.40;73.60;;;;;;4989951;28;20050;-50
2022/01/29 00:49:40;;;;;;;27.65;18.35;;;9.40;73.70;;;;;;4995826;28;20053;-47
2022/01/29 00:52:06;;;;;;;26.20;17.13;;;9.40;73.70;;;;;;5001262;28;20077;-44
2022/01/29 00:54:33;;;;;;;28.27;18.02;;;9.40;73.70;;;;;;5010094;28;20573;-50
2022/01/29 00:57:00;;;;;;;27.48;18.35;;;9.40;73.60;;;;;;4995020;28;20041;-49
2022/01/29 00:59:27;;;;;;;31.67;19.17;;;9.40;73.60;;;;;;5001457;28;20050;-49
2022/01/29 01:01:54;;;;;;;29.35;17.48;;;9.40;73.60;;;;;;5007900;28;20081;-47
2022/01/29 01:04:20;;;;;;;29.80;18.27;;;9.40;73.60;;;;;;5009950;28;20567;-48
2022/01/29 01:06:47;;;;;;;29.05;18.75;;;9.40;73.50;;;;;;4979850;28;20039;-45
2022/01/29 01:09:14;;;;;;;27.70;17.52;;;9.40;73.60;;;;;;4990416;28;20553;-43
2022/01/29 01:11:41;;;;;;;29.25;17.10;;;9.40;73.60;;;;;;4990478;28;20046;-43
2022/01/29 01:14:10;;;;;;;28.40;16.83;;;9.40;73.60;;;;;;4989735;28;20069;-45
2022/01/29 01:16:37;;;;;;;25.90;17.38;;;9.40;73.60;;;;;;4985442;28;20502;-44
2022/01/29 01:19:03;;;;;;;25.70;16.67;;;9.40;73.50;;;;;;4991082;28;20069;-44
2022/01/29 01:21:30;;;;;;;26.50;17.88;;;9.40;73.40;;;;;;5010467;28;20046;-43
2022/01/29 01:23:57;;;;;;;26.27;16.52;;;9.50;73.50;;;;;;5000141;28;20069;-44
2022/01/29 01:26:24;;;;;;;26.73;17.75;;;9.40;73.50;;;;;;4985913;28;20065;-44
2022/01/29 01:28:52;;;;;;;24.63;16.08;;;9.40;73.40;;;;;;5000138;28;20100;-47
2022/01/29 01:31:19;;;;;;;25.60;16.90;;;9.40;73.40;;;;;;5001544;28;20136;-46
2022/01/29 01:33:47;;;;;;;23.90;16.17;;;9.50;73.50;;;;;;5009007;28;20074;-44
2022/01/29 01:36:17;;;;;;;30.75;17.45;;;9.50;73.40;;;;;;4993349;28;20145;-46
2022/01/29 01:39:03;;;;;;;28.35;16.95;;;9.50;73.40;;;;;;4998721;28;20065;-44
2022/01/29 01:41:37;;;;;;;23.83;15.30;;;9.50;73.40;;;;;;4987305;28;20571;-44
2022/01/29 01:44:04;;;;;;;25.52;16.08;;;9.50;73.40;;;;;;4985745;28;20046;-44
2022/01/29 01:46:31;;;;;;;26.30;16.33;;;9.50;73.40;;;;;;4983312;28;20051;-46
2022/01/29 01:48:58;;;;;;;25.05;16.65;;;9.50;73.40;;;;;;4986898;28;20125;-47
2022/01/29 01:51:26;;;;;;;31.55;17.27;;;9.50;73.30;;;;;;4990402;28;20793;-47
2022/01/29 01:53:52;;;;;;;26.15;16.48;;;9.50;73.30;;;;;;4984494;28;20539;-45
2022/01/29 01:56:19;;;;;;;26.42;16.23;;;9.60;73.30;;;;;;4998911;28;20069;-46
2022/01/29 01:58:46;;;;;;;24.23;17.08;;;9.60;73.30;;;;;;5001169;28;20413;-43
2022/01/29 02:01:16;;;;;;;26.45;15.82;;;9.50;73.30;;;;;;4993439;28;20046;-49
2022/01/29 02:03:45;;;;;;;24.52;17.67;;;9.60;73.40;;;;;;4988135;28;20066;-46
2022/01/29 02:06:13;;;;;;;23.58;15.93;;;9.60;73.40;;;;;;4997718;28;20125;-44
2022/01/29 02:08:42;;;;;;;22.70;15.68;;;9.60;73.40;;;;;;5001782;28;20096;-45
2022/01/29 02:11:09;;;;;;;22.70;15.20;;;9.60;73.40;;;;;;4991869;28;20121;-45
2022/01/29 02:13:37;;;;;;;27.23;16.48;;;9.60;73.50;;;;;;4993142;28;20038;-47
2022/01/29 02:16:05;;;;;;;23.52;15.90;;;9.60;73.40;;;;;;5007643;28;20579;-45
2022/01/29 02:18:34;;;;;;;24.55;16.83;;;9.60;73.50;;;;;;5005868;28;20141;-43
2022/01/29 02:21:02;;;;;;;24.45;14.57;;;9.60;73.50;;;;;;5013272;28;20042;-43
2022/01/29 02:23:28;;;;;;;21.15;13.82;;;9.60;73.60;;;;;;4996676;28;20046;-45
2022/01/29 02:25:55;;;;;;;21.88;15.18;;;9.60;73.60;;;;;;5001626;28;20047;-46
2022/01/29 02:28:24;;;;;;;22.55;14.35;;;9.60;73.50;;;;;;5011766;28;20108;-45
2022/01/29 02:31:00;;;;;;;22.88;15.57;;;9.60;73.60;;;;;;5001316;28;20050;-45
2022/01/29 02:33:28;;;;;;;22.88;15.45;;;9.60;73.60;;;;;;4997622;28;20562;-44
2022/01/29 02:35:56;;;;;;;22.05;14.20;;;9.60;73.60;;;;;;5009533;28;20034;-44
2022/01/29 02:38:24;;;;;;;22.27;13.88;;;9.60;73.60;;;;;;4998679;28;20555;-45
2022/01/29 02:40:56;;;;;;;24.70;15.57;;;9.60;73.60;;;;;;4993085;28;20193;-44
2022/01/29 02:43:31;;;;;;;22.15;14.45;;;9.60;73.70;;;;;;4997580;28;20073;-44
2022/01/29 02:46:22;;;;;;;21.38;15.07;;;9.60;73.70;;;;;;5004474;28;20502;-45
2022/01/29 02:48:50;;;;;;;21.35;14.25;;;9.60;73.70;;;;;;5006155;28;20106;-46
2022/01/29 02:51:18;;;;;;;22.38;14.68;;;9.60;73.80;;;;;;4998166;28;20053;-45
2022/01/29 02:53:45;;;;;;;23.27;13.90;;;9.60;73.80;;;;;;5003626;28;20125;-44
2022/01/29 02:56:12;;;;;;;20.02;14.27;;;9.60;73.90;;;;;;5013248;28;20044;-44
2022/01/29 02:58:39;;;;;;;23.48;14.15;;;9.60;74.00;;;;;;4991280;28;20461;-45
2022/01/29 03:01:07;;;;;;;24.88;14.07;;;9.50;73.90;;;;;;4997950;28;20085;-46
2022/01/29 03:03:34;;;;;;;20.00;13.65;;;9.60;74.00;;;;;;4999469;28;20078;-45
2022/01/29 03:06:03;;;;;;;19.20;14.10;;;9.60;74.00;;;;;;4997289;28;20046;-46
2022/01/29 03:08:33;;;;;;;21.30;13.38;;;9.60;74.10;;;;;;4992378;28;20070;-46
2022/01/29 03:11:01;;;;;;;19.17;12.88;;;9.60;74.20;;;;;;4998119;28;20046;-44
2022/01/29 03:13:27;;;;;;;17.67;12.40;;;9.60;74.30;;;;;;5002787;28;20137;-44
2022/01/29 03:15:54;;;;;;;22.23;13.20;;;9.60;74.30;;;;;;5002024;28;20038;-45
2022/01/29 03:18:21;;;;;;;22.00;13.60;;;9.50;74.30;;;;;;4990252;28;20553;-43
2022/01/29 03:20:47;;;;;;;19.20;11.88;;;9.50;74.40;;;;;;4992252;28;20161;-44
2022/01/29 03:23:14;;;;;;;19.02;12.25;;;9.60;74.50;;;;;;5000674;28;20129;-45
2022/01/29 03:25:41;;;;;;;16.40;11.80;;;9.60;74.50;;;;;;5000402;28;20046;-44
2022/01/29 03:28:07;;;;;;;18.95;12.65;;;9.60;74.60;;;;;;4991573;28;20076;-43
2022/01/29 03:30:34;;;;;;;16.80;10.88;;;9.50;74.60;;;;;;4996490;28;20500;-46
2022/01/29 03:33:01;;;;;;;18.95;11.50;;;9.50;74.70;;;;;;5001181;28;20121;-48
2022/01/29 03:35:27;;;;;;;14.57;10.48;;;9.50;74.80;;;;;;5012227;28;20453;-47
2022/01/29 03:37:54;;;;;;;20.25;11.68;;;9.50;74.90;;;;;;4998748;28;20077;-44
2022/01/29 03:40:21;;;;;;;17.02;10.43;;;9.50;75.10;;;;;;5003487;28;20035;-45
2022/01/29 03:43:00;;;;;;;17.50;11.48;;;9.50;75.20;;;;;;5006155;28;20074;-44
2022/01/29 03:45:27;;;;;;;20.42;11.23;;;9.60;75.30;;;;;;5003458;28;20539;-46
2022/01/29 03:47:56;;;;;;;19.33;11.25;;;9.50;75.30;;;;;;5004679;28;20049;-48
2022/01/29 03:50:26;;;;;;;18.33;10.48;;;9.50;75.40;;;;;;5004285;28;20046;-48
2022/01/29 03:52:53;;;;;;;15.98;11.45;;;9.50;75.50;;;;;;5010105;28;20052;-49
2022/01/29 03:55:20;;;;;;;15.20;10.77;;;9.50;75.60;;;;;;4988855;28;20468;-48
2022/01/29 03:57:47;;;;;;;18.30;11.80;;;9.50;75.70;;;;;;4990747;28;20070;-49
2022/01/29 04:00:14;;;;;;;15.98;11.23;;;9.60;75.80;;;;;;5002564;28;20089;-49
2022/01/29 04:02:41;;;;;;;15.07;10.93;;;9.50;75.90;;;;;;5008962;28;20061;-51
2022/01/29 04:05:09;;;;;;;17.67;10.60;;;9.50;75.90;;;;;;5002898;28;20034;-48
2022/01/29 04:07:36;;;;;;;17.45;11.00;;;9.60;76.10;;;;;;4987420;28;20714;-50
2022/01/29 04:10:03;;;;;;;15.98;10.95;;;9.50;76.10;;;;;;5000983;28;20042;-50
2022/01/29 04:12:36;;;;;;;16.05;10.98;;;9.50;76.30;;;;;;5010651;28;20111;-46
2022/01/29 04:15:03;;;;;;;13.23;9.07;;;9.50;76.40;;;;;;4998553;28;20038;-49
2022/01/29 04:17:29;;;;;;;13.52;10.23;;;9.50;76.50;;;;;;5000912;28;20076;-50
2022/01/29 04:19:56;;;;;;;14.40;10.45;;;9.50;76.70;;;;;;5002529;28;20073;-48
2022/01/29 04:22:25;;;;;;;17.30;10.75;;;9.50;76.80;;;;;;5010635;28;20069;-50
2022/01/29 04:24:52;;;;;;;14.73;9.35;;;9.60;77.10;;;;;;4997098;28;20049;-49
2022/01/29 04:27:31;;;;;;;13.57;9.73;;;9.40;77.10;;;;;;4990224;28;20533;-50
2022/01/29 04:30:01;;;;;;;13.20;8.90;;;9.40;77.20;;;;;;4991449;28;20711;-48
2022/01/29 04:32:55;;;;;;;13.73;9.60;;;9.40;77.20;;;;;;4988802;28;20076;-47
2022/01/29 04:35:17;;;;;;;14.65;9.75;;;9.40;77.40;;;;;;4999162;28;20084;-47
2022/01/29 04:37:44;;;;;;;14.60;10.68;;;9.40;77.50;;;;;;5031985;23;20137;-48
2022/01/29 04:40:11;;;;;;;14.02;9.45;;;9.40;77.60;;;;;;5010639;28;20041;-47
2022/01/29 04:42:38;;;;;;;13.70;9.50;;;9.40;77.70;;;;;;5009936;28;20564;-46
2022/01/29 04:45:05;;;;;;;11.25;9.10;;;9.40;77.80;;;;;;5006262;28;20034;-49
2022/01/29 04:47:32;;;;;;;13.20;8.43;;;9.30;77.90;;;;;;5024269;28;20062;-50
2022/01/29 04:49:59;;;;;;;13.63;8.45;;;9.40;78.00;;;;;;5027570;28;20103;-52
2022/01/29 04:52:25;;;;;;;11.98;9.00;;;9.40;78.10;;;;;;5020354;28;20045;-50
2022/01/29 04:54:52;;;;;;;11.10;7.88;;;9.40;78.20;;;;;;5022168;28;20045;-50
2022/01/29 04:57:19;;;;;;;13.18;7.82;;;9.40;78.30;;;;;;5005693;28;20092;-51
2022/01/29 04:59:46;;;;;;;10.77;8.23;;;9.40;78.40;;;;;;5009510;28;20080;-47
2022/01/29 05:02:12;;;;;;;11.10;7.22;;;9.40;78.50;;;;;;5013757;28;20076;-50
2022/01/29 05:04:39;;;;;;;10.18;6.82;;;9.40;78.50;;;;;;5019317;28;20455;-52
2022/01/29 05:07:06;;;;;;;10.38;7.50;;;9.40;78.60;;;;;;5009187;28;20050;-47
2022/01/29 05:09:35;;;;;;;10.35;8.02;;;9.40;78.60;;;;;;5008366;28;20425;-50
2022/01/29 05:12:02;;;;;;;9.80;7.05;;;9.40;78.70;;;;;;5006308;28;20607;-52
2022/01/29 05:14:39;;;;;;;11.05;7.13;;;9.40;78.70;;;;;;5018998;28;20133;-50
2022/01/29 05:28:08;;;;;;;10.10;6.68;;;9.50;78.80;;;;;;5008844;28;20069;-49
2022/01/29 05:30:35;;;;;;;7.40;6.13;;;9.50;78.80;;;;;;5009389;28;20049;-48
2022/01/29 05:33:01;;;;;;;9.73;6.28;;;9.50;78.90;;;;;;5018876;28;20132;-51
2022/01/29 05:35:30;;;;;;;10.32;7.18;;;9.50;78.90;;;;;;5023047;28;20038;-46
2022/01/29 05:37:57;;;;;;;9.13;6.88;;;9.50;79.00;;;;;;5026370;28;20041;-47
2022/01/29 05:40:24;;;;;;;8.48;6.70;;;9.50;79.00;;;;;;5017642;28;20076;-51
2022/01/29 05:42:50;;;;;;;9.50;6.85;;;9.60;79.10;;;;;;5019317;28;20652;-48
2022/01/29 05:45:17;;;;;;;9.32;7.05;;;9.60;79.00;;;;;;5029493;28;20106;-47
2022/01/29 05:47:45;;;;;;;10.02;6.75;;;9.60;79.20;;;;;;5006685;28;20041;-48
2022/01/29 05:50:12;;;;;;;8.70;6.88;;;9.60;79.20;;;;;;5016063;28;20034;-48
2022/01/29 05:52:38;;;;;;;12.77;7.47;;;9.60;79.20;;;;;;5019961;28;20037;-48
2022/01/29 05:55:05;;;;;;;10.32;7.28;;;9.70;79.20;;;;;;5029530;28;20088;-49
2022/01/29 05:57:32;;;;;;;10.77;8.57;;;9.70;79.30;;;;;;5014044;28;20050;-51
2022/01/29 05:59:59;;;;;;;8.68;7.10;;;9.70;79.30;;;;;;5023337;28;20072;-47
2022/01/29 06:02:25;;;;;;;12.27;8.38;;;9.70;79.30;;;;;;5021434;28;20054;-53
2022/01/29 06:04:52;;;;;;;10.55;8.38;;;9.70;79.30;;;;;;5022729;28;20067;-49
2022/01/29 06:07:19;;;;;;;12.55;7.70;;;9.80;79.40;;;;;;5002240;28;20070;-49
2022/01/29 06:09:47;;;;;;;10.07;7.55;;;9.80;79.40;;;;;;5020073;28;20111;-51
2022/01/29 06:12:14;;;;;;;10.95;8.02;;;9.80;79.40;;;;;;5020743;28;20525;-49
2022/01/29 06:14:43;;;;;;;10.95;8.75;;;9.80;80.00;;;;;;5026321;28;20042;-47
2022/01/29 06:17:11;;;;;;;11.88;8.23;;;9.80;79.30;;;;;;5016720;28;20045;-48
2022/01/29 06:19:38;;;;;;;12.95;8.57;;;9.80;79.30;;;;;;5020840;28;20075;-50
2022/01/29 06:22:10;;;;;;;9.75;7.72;;;9.90;79.40;;;;;;5028960;28;20052;-52
2022/01/29 06:24:37;;;;;;;12.45;8.73;;;9.90;79.40;;;;;;5017316;28;20049;-50
2022/01/29 06:27:03;;;;;;;13.35;9.00;;;9.90;79.40;;;;;;5007676;28;20105;-51
2022/01/29 06:29:30;;;;;;;12.15;8.77;;;9.90;79.40;;;;;;5022390;28;20106;-50
2022/01/29 06:31:57;;;;;;;12.23;8.98;;;10.00;79.40;;;;;;5007916;28;20532;-48
2022/01/29 06:34:27;;;;;;;12.55;9.10;;;10.00;79.50;;;;;;5010870;28;20069;-51
2022/01/29 06:36:53;;;;;;;10.65;8.20;;;10.00;79.50;;;;;;5017953;28;20471;-50
2022/01/29 06:39:20;;;;;;;9.63;7.88;;;10.00;79.40;;;;;;5012414;28;20088;-50
2022/01/29 06:41:47;;;;;;;13.30;9.20;;;10.00;79.40;;;;;;5030558;28;20452;-51
2022/01/29 06:44:13;;;;;;;13.60;8.95;;;10.00;79.40;;;;;;5022721;28;20048;-47
2022/01/29 06:46:40;;;;;;;10.90;8.50;;;10.10;79.40;;;;;;5023097;28;20080;-48
2022/01/29 06:49:07;;;;;;;8.82;7.63;;;10.10;79.40;;;;;;5024219;28;20065;-49
2022/01/29 06:51:34;;;;;;;10.57;7.57;;;10.10;79.30;;;;;;5019166;28;20081;-50
2022/01/29 06:54:00;;;;;;;10.38;7.88;;;10.10;79.40;;;;;;5008307;28;20041;-49
2022/01/29 06:56:27;;;;;;;11.20;7.70;;;10.10;79.30;;;;;;5021240;28;20041;-47
2022/01/29 06:58:54;;;;;;;10.13;8.27;;;10.20;79.30;;;;;;5012327;28;20095;-48
2022/01/29 07:01:38;;;;;;;11.35;9.05;;;10.20;79.20;;;;;;5007968;28;20039;-52
2022/01/29 07:04:05;;;;;;;10.93;8.63;;;10.20;79.20;;;;;;5001378;28;20046;-52
2022/01/29 07:06:32;;;;;;;10.48;8.48;;;10.20;79.20;;;;;;5011948;28;20050;-50
2022/01/29 07:08:59;;;;;;;9.20;7.88;;;10.20;79.20;;;;;;5019627;28;20042;-50
2022/01/29 07:11:26;;;;;;;12.07;8.10;;;10.20;79.20;;;;;;5014016;28;20140;-50
2022/01/29 07:14:01;;;;;;;12.43;8.10;;;10.20;79.20;;;;;;5016719;28;20577;-51
2022/01/29 07:16:32;;;;;;;9.82;7.45;;;10.30;79.20;;;;;;5015742;28;20037;-50
2022/01/29 07:18:59;;;;;;;9.88;8.05;;;10.30;79.20;;;;;;5011427;28;20053;-51
2022/01/29 07:21:26;;;;;;;10.10;7.85;;;10.30;79.10;;;;;;5008751;28;20049;-52
2022/01/29 07:23:53;;;;;;;9.05;7.72;;;10.30;79.10;;;;;;5015389;28;20112;-51
2022/01/29 07:26:19;;;;;;;11.40;8.43;;;10.30;79.10;;;;;;5013477;28;20061;-54
2022/01/29 07:28:46;;;;;;;10.13;7.93;;;10.40;79.20;;;;;;5031198;28;20397;-52
2022/01/29 07:31:18;;;;;;;10.68;8.07;;;10.40;79.10;;;;;;5015955;28;20046;-51
2022/01/29 07:33:45;;;;;;;13.52;7.85;;;10.40;79.10;;;;;;5021048;28;20042;-55
2022/01/29 07:36:12;;;;;;;10.85;8.63;;;10.40;79.10;;;;;;5029371;28;20124;-52
2022/01/29 07:38:39;;;;;;;10.80;7.93;;;10.40;79.10;;;;;;5001064;28;20073;-52
2022/01/29 07:41:06;;;;;;;11.80;8.48;;;10.40;79.10;;;;;;5010191;28;20045;-52
2022/01/29 07:43:32;;;;;;;10.90;8.05;;;10.40;79.10;;;;;;5017497;28;20088;-51
2022/01/29 07:46:05;;;;;;;11.05;7.72;;;10.40;79.10;;;;;;5020688;28;20704;-51
2022/01/29 07:48:31;;;;;;;11.82;8.73;;;10.50;79.10;;;;;;4992247;28;20054;-52
2022/01/29 07:50:58;;;;;;;13.60;8.55;;;10.50;79.10;;;;;;4983976;28;20453;-54
2022/01/29 07:53:25;;;;;;;10.27;8.18;;;10.50;79.10;;;;;;5002128;28;20121;-52
2022/01/29 07:55:51;;;;;;;12.90;8.52;;;10.50;79.10;;;;;;4999106;28;20066;-54
2022/01/29 07:58:18;;;;;;;10.95;8.73;;;10.50;79.00;;;;;;5005904;28;20100;-55
2022/01/29 08:00:45;;;;;;;13.20;9.02;;;10.60;79.10;;;;;;4997694;28;20316;-54
2022/01/29 08:03:12;;;;;;;12.75;9.00;;;10.60;79.00;;;;;;5005218;28;20042;-50
2022/01/29 08:05:39;;;;;;;13.27;8.98;;;10.60;79.10;;;;;;5000477;28;20038;-51
2022/01/29 08:08:14;;;;;;;12.10;8.65;;;10.60;79.10;;;;;;5006148;28;20049;-52
2022/01/29 08:10:40;;;;;;;11.02;8.07;;;10.70;79.00;;;;;;5013404;28;20707;-53
2022/01/29 08:13:07;;;;;;;10.75;8.07;;;10.70;79.00;;;;;;5001476;28;20383;-53
2022/01/29 08:15:34;;;;;;;11.60;9.43;;;10.70;79.00;;;;;;4999743;28;20045;-54
2022/01/29 08:18:00;;;;;;;10.85;8.45;;;10.70;79.00;;;;;;5002745;28;20093;-50
2022/01/29 08:20:27;;;;;;;10.90;8.32;;;10.70;79.00;;;;;;5007314;28;20034;-53
2022/01/29 08:22:54;;;;;;;9.30;7.72;;;10.70;79.00;;;;;;5003184;28;20065;-52
2022/01/29 08:25:21;;;;;;;10.88;8.43;;;10.70;78.90;;;;;;5026916;28;20396;-54
2022/01/29 08:27:47;;;;;;;10.25;8.18;;;10.80;79.00;;;;;;4993329;28;20080;-54
2022/01/29 08:30:14;;;;;;;10.48;7.57;;;10.80;79.00;;;;;;5018027;28;20116;-56
2022/01/29 08:32:42;;;;;;;11.43;8.43;;;10.80;79.00;;;;;;4998819;28;20103;-52
2022/01/29 08:35:12;;;;;;;13.68;8.35;;;10.90;78.90;;;;;;5008551;28;20084;-53
2022/01/29 08:37:40;;;;;;;10.50;8.30;;;10.90;78.90;;;;;;4999521;28;20068;-51
2022/01/29 08:40:08;;;;;;;10.23;8.00;;;10.90;78.80;;;;;;5020067;28;20121;-52
2022/01/29 08:42:34;;;;;;;10.50;8.50;;;11.00;78.80;;;;;;4998588;28;20042;-51
2022/01/29 08:45:03;;;;;;;11.32;8.63;;;11.00;78.80;;;;;;5006306;28;20111;-53
2022/01/29 08:47:34;;;;;;;13.05;8.63;;;11.00;78.80;;;;;;4996431;28;20202;-54
2022/01/29 08:50:03;;;;;;;10.95;8.65;;;11.00;78.70;;;;;;5006943;28;20048;-51
2022/01/29 08:52:30;;;;;;;9.57;7.80;;;11.10;78.60;;;;;;4996209;28;20129;-52
2022/01/29 08:54:59;;;;;;;9.55;8.10;;;11.10;78.70;;;;;;5008767;28;20099;-56
2022/01/29 08:57:26;;;;;;;9.48;7.90;;;11.10;78.60;;;;;;5000344;28;20753;-51
2022/01/29 08:59:53;;;;;;;11.85;8.07;;;11.20;78.50;;;;;;5014785;28;20096;-52
2022/01/29 09:02:19;;;;;;;10.10;7.88;;;11.20;78.50;;;;;;5001987;28;20049;-53
2022/01/29 09:04:46;;;;;;;11.02;7.95;;;11.30;78.50;;;;;;5005666;28;20069;-52
2022/01/29 09:07:13;;;;;;;9.30;7.53;;;11.30;78.40;;;;;;4998444;28;20042;-54
2022/01/29 09:09:44;;;;;;;8.13;7.20;;;11.30;78.30;;;;;;5010822;28;20041;-52
2022/01/29 09:12:12;;;;;;;8.93;7.63;;;11.30;78.20;;;;;;4992570;28;20687;-51
2022/01/29 09:14:39;;;;;;;10.52;7.38;;;11.40;78.20;;;;;;5003560;28;20066;-51
2022/01/29 09:17:07;;;;;;;9.35;7.53;;;11.40;78.10;;;;;;5026813;28;20636;-50
2022/01/29 09:19:38;;;;;;;9.50;7.97;;;11.40;78.10;;;;;;5021318;28;20069;-55
2022/01/29 09:22:05;;;;;;;9.38;7.32;;;11.50;78.00;;;;;;5029828;28;20280;-54
2022/01/29 09:24:32;;;;;;;10.82;7.78;;;11.50;78.00;;;;;;5012957;28;20560;-51
2022/01/29 09:27:01;;;;;;;8.80;7.47;;;11.50;78.00;;;;;;5014238;28;20034;-54
2022/01/29 09:29:28;;;;;;;13.88;8.50;;;11.50;78.00;;;;;;5017629;28;20398;-54
2022/01/29 09:31:54;;;;;;;10.02;7.80;;;11.50;77.90;;;;;;5027152;28;20046;-52
2022/01/29 09:34:21;;;;;;;10.13;7.60;;;11.60;78.00;;;;;;5013279;28;20112;-51
2022/01/29 09:36:50;;;;;;;9.82;7.25;;;11.60;77.90;;;;;;5019954;28;20045;-52
2022/01/29 09:39:19;;;;;;;10.35;7.95;;;11.60;78.00;;;;;;5028039;28;20042;-50
2022/01/29 09:41:46;;;;;;;8.40;7.50;;;11.60;77.90;;;;;;5013293;28;20030;-51
2022/01/29 09:44:13;;;;;;;10.73;7.90;;;11.70;77.90;;;;;;5019198;28;20041;-53
2022/01/29 09:46:43;;;;;;;10.18;7.82;;;11.60;77.80;;;;;;5024082;28;20091;-52
2022/01/29 09:49:11;;;;;;;9.60;7.82;;;11.70;77.90;;;;;;5027879;28;20152;-52
2022/01/29 09:51:39;;;;;;;10.27;8.25;;;11.70;77.80;;;;;;5013162;28;20042;-50
2022/01/29 09:54:08;;;;;;;11.00;7.72;;;11.70;77.70;;;;;;5015171;28;20086;-52
2022/01/29 09:56:35;;;;;;;9.68;7.50;;;11.80;77.70;;;;;;5022361;28;20394;-50
2022/01/29 09:59:03;;;;;;;14.13;8.18;;;11.80;77.70;;;;;;5029303;28;20046;-51
2022/01/29 10:01:30;;;;;;;11.98;8.23;;;11.80;77.60;;;;;;5012624;28;20049;-50
2022/01/29 10:04:02;;;;;;;12.18;7.70;;;11.80;77.60;;;;;;5017361;28;20398;-50
2022/01/29 10:06:29;;;;;;;11.63;8.02;;;11.90;77.70;;;;;;5007947;28;20046;-49
2022/01/29 10:08:57;;;;;;;10.32;7.93;;;11.90;77.60;;;;;;5000563;28;20064;-51
2022/01/29 10:11:26;;;;;;;9.75;7.47;;;11.90;77.70;;;;;;5005842;28;20064;-53
2022/01/29 10:14:04;;;;;;;9.95;7.60;;;11.90;77.70;;;;;;4981491;28;20123;-51
2022/01/29 10:16:41;;;;;;;9.02;7.53;;;11.90;77.80;;;;;;5004950;28;20065;-55
2022/01/29 10:19:11;;;;;;;9.45;7.18;;;11.90;77.90;;;;;;4998180;28;20040;-52
2022/01/29 10:21:47;;;;;;;8.48;6.50;;;11.90;77.80;;;;;;5003482;28;20085;-55
2022/01/29 10:24:17;;;;;;;9.30;6.38;;;12.00;78.10;;;;;;5008775;28;20042;-54
2022/01/29 10:26:49;;;;;;;9.15;6.88;;;11.90;77.90;;;;;;5012626;28;20419;-51
2022/01/29 10:29:23;;;;;;;9.52;6.95;;;11.90;78.10;;;;;;5000687;28;20046;-55
2022/01/29 10:31:55;;;;;;;6.63;5.93;;;11.90;78.10;;;;;;5013020;28;20037;-52
2022/01/29 10:34:28;;;;;;;8.48;7.07;;;11.90;78.40;;;;;;5000300;28;20112;-54
2022/01/29 10:37:23;;;;;;;9.77;6.78;;;11.90;78.40;;;;;;5008038;28;20089;-52
2022/01/29 10:39:58;;;;;;;7.68;5.70;;;11.80;78.90;;;;;;4993135;28;20093;-55
2022/01/29 10:42:31;;;;;;;7.13;5.95;;;11.80;78.80;;;;;;4996970;28;20046;-54
2022/01/29 10:45:02;;;;;;;5.68;4.90;;;11.80;78.80;;;;;;4998645;28;20053;-55
2022/01/29 10:47:31;;;;;;;6.90;5.10;;;11.80;79.10;;;;;;5012674;28;20052;-55
2022/01/29 10:50:02;;;;;;;5.68;4.57;;;11.80;79.10;;;;;;4994316;28;20498;-54
2022/01/29 10:52:34;;;;;;;5.73;5.23;;;11.80;79.30;;;;;;4997821;28;20714;-55
2022/01/29 10:55:06;;;;;;;4.72;4.22;;;11.80;79.50;;;;;;5001294;28;20104;-55
2022/01/29 10:57:36;;;;;;;5.43;3.95;;;11.80;79.60;;;;;;5007614;28;20037;-54
2022/01/29 11:00:09;;;;;;;4.53;4.05;;;11.80;79.60;;;;;;4995280;28;20482;-54
2022/01/29 11:02:36;;;;;;;4.07;3.67;;;11.80;79.70;;;;;;5011598;28;20033;-53
2022/01/29 11:05:05;;;;;;;3.65;3.10;;;11.80;79.60;;;;;;4998097;28;20640;-54
2022/01/29 11:07:33;;;;;;;3.97;3.30;;;11.80;79.90;;;;;;5005289;28;20041;-54
2022/01/29 11:10:03;;;;;;;3.53;3.22;;;11.80;80.00;;;;;;4994923;28;20092;-52
2022/01/29 11:12:37;;;;;;;3.20;2.78;;;11.80;80.10;;;;;;5013669;28;20042;-53
2022/01/29 11:15:05;;;;;;;3.47;2.90;;;11.80;80.40;;;;;;4997396;28;20445;-54
2022/01/29 11:17:32;;;;;;;3.03;2.72;;;11.90;80.60;;;;;;5015867;28;20044;-51
2022/01/29 11:20:00;;;;;;;3.03;2.72;;;11.90;80.50;;;;;;4992853;28;20062;-54
2022/01/29 11:22:38;;;;;;;3.20;2.90;;;11.90;80.60;;;;;;5004731;28;20377;-53
2022/01/29 11:25:11;;;;;;;2.47;2.28;;;12.00;80.80;;;;;;5001405;28;20049;-54
2022/01/29 11:27:38;;;;;;;2.83;2.63;;;12.00;80.70;;;;;;5002587;28;20045;-52
2022/01/29 11:30:08;;;;;;;3.67;3.17;;;12.00;80.70;;;;;;4994099;28;20478;-54
2022/01/29 11:32:42;;;;;;;2.38;2.20;;;12.00;80.80;;;;;;5010676;28;20088;-53
2022/01/29 11:35:09;;;;;;;3.10;2.10;;;12.10;80.70;;;;;;4996704;28;20394;-54
2022/01/29 11:37:37;;;;;;;2.72;2.30;;;12.10;80.60;;;;;;5004784;28;20045;-53
2022/01/29 11:40:17;;;;;;;2.53;2.33;;;12.10;80.50;;;;;;4999699;28;20121;-54
2022/01/29 11:43:06;;;;;;;2.75;2.55;;;12.20;80.30;;;;;;5003815;28;20053;-54
2022/01/29 11:46:08;;;;;;;2.55;1.95;;;12.20;80.20;;;;;;4996476;28;20053;-54
2022/01/29 11:48:39;;;;;;;3.13;2.83;;;12.30;80.30;;;;;;4998490;28;20765;-51
2022/01/29 11:51:10;;;;;;;3.22;2.50;;;12.30;79.70;;;;;;5003705;28;20104;-54
2022/01/29 11:53:49;;;;;;;3.30;2.22;;;12.30;79.50;;;;;;4997588;28;20080;-52
2022/01/29 11:56:30;;;;;;;3.25;2.78;;;12.40;79.50;;;;;;5000095;28;20566;-54
2022/01/29 11:59:19;;;;;;;3.83;3.13;;;12.40;79.20;;;;;;5006275;28;20037;-51
2022/01/29 12:01:50;;;;;;;3.05;2.75;;;12.40;79.30;;;;;;5012530;28;20041;-52
2022/01/29 12:04:17;;;;;;;2.83;2.63;;;12.40;79.10;;;;;;4999883;28;20714;-52
2022/01/29 12:07:04;;;;;;;3.50;2.38;;;12.40;78.90;;;;;;5004040;28;20251;-55
2022/01/29 12:09:45;;;;;;;2.67;2.47;;;12.50;78.80;;;;;;4997394;28;20073;-53
2022/01/29 12:12:17;;;;;;;3.20;2.53;;;12.50;78.80;;;;;;5001481;28;20096;-55
2022/01/29 12:14:48;;;;;;;3.80;3.47;;;12.60;78.70;;;;;;4998541;28;20049;-52
2022/01/29 12:17:45;;;;;;;3.60;3.10;;;12.60;79.20;;;;;;5013650;28;20073;-55
2022/01/29 12:20:16;;;;;;;4.40;3.60;;;12.70;78.50;;;;;;4994210;28;20050;-53
2022/01/29 12:22:44;;;;;;;4.75;3.53;;;12.70;78.20;;;;;;5003506;28;20481;-53
2022/01/29 12:25:16;;;;;;;3.05;2.78;;;12.80;77.90;;;;;;4996045;28;20112;-50
2022/01/29 12:27:46;;;;;;;4.15;2.80;;;12.80;77.60;;;;;;5019690;28;20042;-55
2022/01/29 12:30:23;;;;;;;3.17;2.72;;;12.90;77.60;;;;;;4992456;28;20046;-53
2022/01/29 12:33:03;;;;;;;3.47;2.72;;;13.00;77.60;;;;;;5020512;28;20037;-55
2022/01/29 12:35:36;;;;;;;3.20;2.60;;;13.00;77.40;;;;;;4983872;28;20045;-52
2022/01/29 12:38:05;;;;;;;3.30;2.70;;;13.00;77.10;;;;;;5007572;28;20034;-52
2022/01/29 12:40:38;;;;;;;3.50;2.47;;;13.10;77.00;;;;;;4996810;28;20498;-53
2022/01/29 12:43:21;;;;;;;2.28;2.08;;;13.10;76.80;;;;;;5001612;28;20041;-55
2022/01/29 12:45:48;;;;;;;2.97;2.35;;;13.20;76.20;;;;;;5003581;28;20045;-55
2022/01/29 12:48:16;;;;;;;2.53;2.30;;;13.20;76.10;;;;;;5002962;28;20061;-55
2022/01/29 12:50:44;;;;;;;2.55;2.35;;;13.20;76.60;;;;;;5006027;28;20037;-53
2022/01/29 12:53:17;;;;;;;2.15;1.95;;;13.20;76.00;;;;;;5003896;28;20054;-54
2022/01/29 12:55:58;;;;;;;2.80;2.20;;;13.30;76.00;;;;;;4985056;28;20085;-55
2022/01/29 12:58:36;;;;;;;2.30;2.00;;;13.30;75.70;;;;;;4998875;28;21613;-55
2022/01/29 13:01:11;;;;;;;3.13;1.83;;;13.40;75.80;;;;;;4996663;28;20069;-55